createdAt,value
2019-03-21T00:00:25.042Z,12.70
2019-03-21T00:01:32.413Z,12.70
2019-03-21T00:02:37.152Z,12.70
2019-03-21T00:03:41.922Z,12.70
2019-03-21T00:04:49.006Z,12.70
2019-03-21T00:05:53.746Z,12.60
2019-03-21T00:06:58.471Z,12.60
2019-03-21T00:08:03.402Z,12.60
2019-03-21T00:09:10.680Z,12.60
2019-03-21T00:10:41.919Z,12.60
2019-03-21T00:12:14.724Z,12.60
2019-03-21T00:13:19.459Z,12.60
2019-03-21T00:14:36.850Z,12.60
2019-03-21T00:15:43.354Z,12.60
2019-03-21T00:16:48.100Z,12.60
2019-03-21T00:18:05.471Z,12.60
2019-03-21T00:19:10.231Z,12.60
2019-03-21T00:20:16.559Z,12.60
2019-03-21T00:21:21.286Z,12.60
2019-03-21T00:22:26.019Z,12.60
2019-03-21T00:23:30.752Z,12.60
2019-03-21T00:24:35.515Z,12.60
2019-03-21T00:25:40.251Z,12.60
2019-03-21T00:26:44.987Z,12.60
2019-03-21T00:27:49.718Z,12.60
2019-03-21T00:28:54.492Z,12.60
2019-03-21T00:29:59.263Z,12.60
2019-03-21T00:31:03.987Z,12.60
2019-03-21T00:32:08.724Z,12.60
2019-03-21T00:33:13.447Z,12.60
2019-03-21T00:34:18.231Z,12.60
2019-03-21T00:35:22.954Z,12.60
2019-03-21T00:36:27.691Z,12.60
2019-03-21T00:37:32.422Z,12.60
2019-03-21T00:38:37.151Z,12.60
2019-03-21T00:39:41.924Z,12.50
2019-03-21T00:40:46.785Z,12.50
2019-03-21T00:41:51.507Z,12.50
2019-03-21T00:42:56.418Z,12.50
2019-03-21T00:44:01.135Z,12.50
2019-03-21T00:45:06.502Z,12.50
2019-03-21T00:46:11.235Z,12.50
2019-03-21T00:47:15.946Z,12.60
2019-03-21T00:48:21.335Z,12.50
2019-03-21T00:49:26.059Z,12.60
2019-03-21T00:50:30.872Z,12.60
2019-03-21T00:51:35.613Z,12.50
2019-03-21T00:52:40.359Z,12.50
2019-03-21T00:53:45.088Z,12.60
2019-03-21T00:54:49.864Z,12.60
2019-03-21T00:55:54.800Z,12.60
2019-03-21T00:56:59.527Z,12.60
2019-03-21T00:58:04.265Z,12.60
2019-03-21T00:59:08.999Z,12.60
2019-03-21T01:00:17.726Z,12.60
2019-03-21T01:01:22.459Z,12.60
2019-03-21T01:02:27.211Z,12.50
2019-03-21T01:03:31.963Z,12.50
2019-03-21T01:04:36.680Z,12.50
2019-03-21T01:05:41.441Z,12.50
2019-03-21T01:06:46.179Z,12.50
2019-03-21T01:07:51.168Z,12.50
2019-03-21T01:08:55.901Z,12.50
2019-03-21T01:10:00.667Z,12.50
2019-03-21T01:11:05.791Z,12.50
2019-03-21T01:12:12.063Z,12.50
2019-03-21T01:13:16.979Z,12.50
2019-03-21T01:14:29.714Z,12.50
2019-03-21T01:15:28.130Z,12.50
2019-03-21T01:16:32.860Z,12.50
2019-03-21T01:17:37.635Z,12.50
2019-03-21T01:18:42.548Z,12.50
2019-03-21T01:19:47.283Z,12.50
2019-03-21T01:20:52.043Z,12.50
2019-03-21T01:21:56.775Z,12.50
2019-03-21T01:23:01.704Z,12.50
2019-03-21T01:24:06.483Z,12.50
2019-03-21T01:25:14.392Z,12.50
2019-03-21T01:26:19.176Z,12.50
2019-03-21T01:27:23.895Z,12.50
2019-03-21T01:28:28.624Z,12.50
2019-03-21T01:29:33.384Z,12.40
2019-03-21T01:30:38.156Z,12.50
2019-03-21T01:31:42.923Z,12.50
2019-03-21T01:32:47.677Z,12.50
2019-03-21T01:33:52.386Z,12.50
2019-03-21T01:34:57.148Z,12.50
2019-03-21T01:36:01.967Z,12.40
2019-03-21T01:37:06.695Z,12.50
2019-03-21T01:38:11.427Z,12.50
2019-03-21T01:39:16.194Z,12.40
2019-03-21T01:40:22.691Z,12.40
2019-03-21T01:41:27.500Z,12.50
2019-03-21T01:42:32.219Z,12.50
2019-03-21T01:43:36.944Z,12.50
2019-03-21T01:44:41.679Z,12.50
2019-03-21T01:45:46.411Z,12.50
2019-03-21T01:46:51.178Z,12.40
2019-03-21T01:47:55.955Z,12.50
2019-03-21T01:49:00.694Z,12.40
2019-03-21T01:50:06.261Z,12.40
2019-03-21T01:51:11.023Z,12.40
2019-03-21T01:52:15.764Z,12.40
2019-03-21T01:53:20.501Z,12.40
2019-03-21T01:54:25.327Z,12.40
2019-03-21T01:55:30.003Z,12.40
2019-03-21T01:56:34.771Z,12.40
2019-03-21T01:57:39.495Z,12.40
2019-03-21T01:58:44.219Z,12.40
2019-03-21T01:59:48.955Z,12.40
2019-03-21T02:00:53.743Z,12.40
2019-03-21T02:01:58.504Z,12.40
2019-03-21T02:03:03.237Z,12.40
2019-03-21T02:04:08.396Z,12.40
2019-03-21T02:05:13.115Z,12.40
2019-03-21T02:06:17.863Z,12.40
2019-03-21T02:07:22.628Z,12.40
2019-03-21T02:08:27.345Z,12.40
2019-03-21T02:09:32.071Z,12.40
2019-03-21T02:10:36.844Z,12.40
2019-03-21T02:11:42.076Z,12.40
2019-03-21T02:12:46.866Z,12.40
2019-03-21T02:13:51.541Z,12.40
2019-03-21T02:14:56.258Z,12.30
2019-03-21T02:16:00.986Z,12.30
2019-03-21T02:17:05.746Z,12.30
2019-03-21T02:18:10.483Z,12.40
2019-03-21T02:19:15.257Z,12.40
2019-03-21T02:20:20.020Z,12.40
2019-03-21T02:21:24.870Z,12.30
2019-03-21T02:22:29.577Z,12.30
2019-03-21T02:23:34.308Z,12.30
2019-03-21T02:24:39.039Z,12.30
2019-03-21T02:25:43.792Z,12.30
2019-03-21T02:26:48.546Z,12.30
2019-03-21T02:27:53.322Z,12.30
2019-03-21T02:28:58.056Z,12.30
2019-03-21T02:30:02.879Z,12.20
2019-03-21T02:31:07.592Z,12.20
2019-03-21T02:32:12.373Z,12.20
2019-03-21T02:33:28.960Z,12.20
2019-03-21T02:34:33.703Z,12.20
2019-03-21T02:35:38.435Z,12.20
2019-03-21T02:36:44.028Z,12.20
2019-03-21T02:37:48.847Z,12.20
2019-03-21T02:38:53.570Z,12.10
2019-03-21T02:40:00.140Z,12.20
2019-03-21T02:41:06.240Z,12.20
2019-03-21T02:42:10.967Z,12.20
2019-03-21T02:43:15.733Z,12.20
2019-03-21T02:44:20.458Z,12.20
2019-03-21T02:45:25.378Z,12.20
2019-03-21T02:46:30.107Z,12.20
2019-03-21T02:47:34.867Z,12.20
2019-03-21T02:48:39.637Z,12.20
2019-03-21T02:49:44.355Z,12.20
2019-03-21T02:50:49.100Z,12.20
2019-03-21T02:51:53.835Z,12.20
2019-03-21T02:52:58.627Z,12.20
2019-03-21T02:54:03.365Z,12.20
2019-03-21T02:55:08.623Z,12.20
2019-03-21T02:56:15.180Z,12.20
2019-03-21T02:57:19.943Z,12.20
2019-03-21T02:58:24.714Z,12.20
2019-03-21T02:59:29.458Z,12.20
2019-03-21T03:00:34.671Z,12.20
2019-03-21T03:01:39.404Z,12.20
2019-03-21T03:02:44.138Z,12.20
2019-03-21T03:03:48.911Z,12.10
2019-03-21T03:04:53.647Z,12.10
2019-03-21T03:05:58.394Z,12.10
2019-03-21T03:07:03.150Z,12.10
2019-03-21T03:08:07.927Z,12.10
2019-03-21T03:09:12.655Z,12.10
2019-03-21T03:10:21.000Z,12.10
2019-03-21T03:11:25.730Z,12.10
2019-03-21T03:12:30.463Z,12.10
2019-03-21T03:13:35.246Z,12.10
2019-03-21T03:14:40.045Z,12.10
2019-03-21T03:15:44.835Z,12.10
2019-03-21T03:16:49.563Z,12.10
2019-03-21T03:17:54.327Z,12.10
2019-03-21T03:18:59.098Z,12.10
2019-03-21T03:20:03.957Z,12.10
2019-03-21T03:21:08.676Z,12.10
2019-03-21T03:22:13.437Z,12.10
2019-03-21T03:23:18.168Z,12.10
2019-03-21T03:24:24.904Z,12.20
2019-03-21T03:25:29.769Z,12.10
2019-03-21T03:26:34.492Z,12.10
2019-03-21T03:27:39.234Z,12.10
2019-03-21T03:28:44.030Z,12.20
2019-03-21T03:29:48.728Z,12.20
2019-03-21T03:30:54.301Z,12.10
2019-03-21T03:31:59.046Z,12.10
2019-03-21T03:33:03.762Z,12.10
2019-03-21T03:34:08.524Z,12.20
2019-03-21T03:35:13.572Z,12.20
2019-03-21T03:36:18.327Z,12.20
2019-03-21T03:37:23.071Z,12.20
2019-03-21T03:38:27.799Z,12.20
2019-03-21T03:39:32.578Z,12.10
2019-03-21T03:40:40.244Z,12.20
2019-03-21T03:41:44.989Z,12.20
2019-03-21T03:42:49.846Z,12.20
2019-03-21T03:43:54.500Z,12.10
2019-03-21T03:44:59.268Z,12.20
2019-03-21T03:46:03.999Z,12.20
2019-03-21T03:47:08.744Z,12.20
2019-03-21T03:48:13.502Z,12.20
2019-03-21T03:49:18.268Z,12.20
2019-03-21T03:50:23.017Z,12.10
2019-03-21T03:51:27.751Z,12.20
2019-03-21T03:52:32.484Z,12.20
2019-03-21T03:53:37.221Z,12.20
2019-03-21T03:54:42.003Z,12.20
2019-03-21T03:55:46.741Z,12.20
2019-03-21T03:56:51.603Z,12.10
2019-03-21T03:57:57.227Z,12.10
2019-03-21T03:59:02.671Z,12.00
2019-03-21T04:00:09.020Z,12.00
2019-03-21T04:01:13.739Z,12.00
2019-03-21T04:02:18.474Z,11.90
2019-03-21T04:03:23.312Z,11.90
2019-03-21T04:04:28.047Z,12.00
2019-03-21T04:05:32.808Z,12.00
2019-03-21T04:06:37.543Z,12.00
2019-03-21T04:07:42.668Z,12.00
2019-03-21T04:08:47.397Z,12.00
2019-03-21T04:09:52.165Z,12.00
2019-03-21T04:10:56.948Z,12.00
2019-03-21T04:12:01.684Z,12.00
2019-03-21T04:13:06.428Z,11.90
2019-03-21T04:14:11.150Z,12.00
2019-03-21T04:15:16.208Z,12.00
2019-03-21T04:16:20.947Z,11.90
2019-03-21T04:17:25.692Z,11.90
2019-03-21T04:18:30.451Z,11.90
2019-03-21T04:19:35.107Z,11.90
2019-03-21T04:20:41.329Z,11.90
2019-03-21T04:21:46.083Z,11.90
2019-03-21T04:22:50.865Z,11.90
2019-03-21T04:23:55.564Z,11.90
2019-03-21T04:25:00.460Z,11.90
2019-03-21T04:26:08.975Z,11.90
2019-03-21T04:27:13.716Z,11.90
2019-03-21T04:28:18.441Z,11.90
2019-03-21T04:29:23.247Z,11.90
2019-03-21T04:30:28.007Z,11.80
2019-03-21T04:31:32.745Z,11.80
2019-03-21T04:32:37.468Z,11.80
2019-03-21T04:33:42.915Z,11.80
2019-03-21T04:34:47.686Z,11.80
2019-03-21T04:35:52.482Z,11.80
2019-03-21T04:36:57.198Z,11.80
2019-03-21T04:38:01.847Z,11.80
2019-03-21T04:39:08.849Z,11.80
2019-03-21T04:40:14.099Z,11.80
2019-03-21T04:41:18.857Z,11.80
2019-03-21T04:42:23.583Z,11.80
2019-03-21T04:43:28.328Z,11.70
2019-03-21T04:44:33.047Z,11.80
2019-03-21T04:45:37.873Z,11.80
2019-03-21T04:46:42.566Z,11.80
2019-03-21T04:47:47.299Z,11.80
2019-03-21T04:48:51.998Z,11.80
2019-03-21T04:49:56.718Z,11.80
2019-03-21T04:51:01.486Z,11.80
2019-03-21T04:52:06.219Z,11.80
2019-03-21T04:53:10.952Z,11.80
2019-03-21T04:54:15.683Z,11.80
2019-03-21T04:55:20.416Z,11.80
2019-03-21T04:56:25.560Z,11.80
2019-03-21T04:57:30.279Z,11.80
2019-03-21T04:58:34.994Z,11.80
2019-03-21T04:59:39.920Z,11.80
2019-03-21T05:00:44.720Z,11.80
2019-03-21T05:01:49.479Z,11.80
2019-03-21T05:02:56.307Z,11.80
2019-03-21T05:04:01.034Z,11.80
2019-03-21T05:05:06.655Z,11.80
2019-03-21T05:06:11.412Z,11.70
2019-03-21T05:07:16.155Z,11.70
2019-03-21T05:08:20.869Z,11.70
2019-03-21T05:09:25.620Z,11.70
2019-03-21T05:10:30.331Z,11.70
2019-03-21T05:11:35.153Z,11.70
2019-03-21T05:12:39.832Z,11.70
2019-03-21T05:13:44.554Z,11.70
2019-03-21T05:14:49.320Z,11.70
2019-03-21T05:15:54.043Z,11.70
2019-03-21T05:16:58.828Z,11.70
2019-03-21T05:18:06.539Z,11.70
2019-03-21T05:19:11.311Z,11.70
2019-03-21T05:20:18.528Z,11.70
2019-03-21T05:21:23.427Z,11.60
2019-03-21T05:22:28.851Z,11.60
2019-03-21T05:23:33.591Z,11.60
2019-03-21T05:24:38.323Z,11.60
2019-03-21T05:25:43.052Z,11.60
2019-03-21T05:26:47.808Z,11.60
2019-03-21T05:27:52.555Z,11.60
2019-03-21T05:28:57.287Z,11.60
2019-03-21T05:30:02.046Z,11.60
2019-03-21T05:31:13.571Z,11.60
2019-03-21T05:32:18.328Z,11.50
2019-03-21T05:33:23.071Z,11.50
2019-03-21T05:34:27.810Z,11.50
2019-03-21T05:35:32.535Z,11.40
2019-03-21T05:36:37.335Z,11.50
2019-03-21T05:37:42.070Z,11.40
2019-03-21T05:38:46.796Z,11.50
2019-03-21T05:39:51.522Z,11.40
2019-03-21T05:40:56.242Z,11.50
2019-03-21T05:42:01.719Z,11.50
2019-03-21T05:43:10.067Z,11.40
2019-03-21T05:44:22.577Z,11.40
2019-03-21T05:45:27.291Z,11.40
2019-03-21T05:46:32.521Z,11.40
2019-03-21T05:47:37.287Z,11.40
2019-03-21T05:48:42.042Z,11.40
2019-03-21T05:49:46.820Z,11.40
2019-03-21T05:50:51.559Z,11.40
2019-03-21T05:51:56.362Z,11.40
2019-03-21T05:53:01.154Z,11.40
2019-03-21T05:54:05.875Z,11.40
2019-03-21T05:55:10.979Z,11.40
2019-03-21T05:56:15.711Z,11.40
2019-03-21T05:57:20.477Z,11.40
2019-03-21T05:58:25.218Z,11.40
2019-03-21T05:59:29.948Z,11.40
2019-03-21T06:00:37.896Z,11.40
2019-03-21T06:01:42.616Z,11.40
2019-03-21T06:02:47.384Z,11.40
2019-03-21T06:03:52.659Z,11.40
2019-03-21T06:04:57.364Z,11.40
2019-03-21T06:06:16.849Z,11.40
2019-03-21T06:07:31.951Z,11.40
2019-03-21T06:08:37.773Z,11.40
2019-03-21T06:09:42.488Z,11.40
2019-03-21T06:10:48.635Z,11.40
2019-03-21T06:11:56.528Z,11.40
2019-03-21T06:13:01.286Z,11.40
2019-03-21T06:14:06.023Z,11.40
2019-03-21T06:15:10.987Z,11.40
2019-03-21T06:16:15.718Z,11.40
2019-03-21T06:17:20.502Z,11.40
2019-03-21T06:18:52.120Z,11.40
2019-03-21T06:20:29.866Z,11.50
2019-03-21T06:22:02.645Z,11.50
2019-03-21T06:23:42.804Z,11.50
2019-03-21T06:25:39.091Z,11.60
2019-03-21T06:27:01.235Z,11.60
2019-03-21T06:28:06.123Z,11.60
2019-03-21T06:29:10.856Z,11.60
2019-03-21T06:30:15.639Z,11.70
2019-03-21T06:31:20.440Z,11.70
2019-03-21T06:32:25.740Z,11.80
2019-03-21T06:33:30.634Z,11.80
2019-03-21T06:34:35.716Z,11.90
2019-03-21T06:35:40.354Z,11.90
2019-03-21T06:36:45.213Z,11.90
2019-03-21T06:37:49.940Z,11.90
2019-03-21T06:38:54.616Z,11.90
2019-03-21T06:39:59.256Z,12.00
2019-03-21T06:41:03.899Z,12.00
2019-03-21T06:42:08.550Z,12.00
2019-03-21T06:43:13.263Z,12.10
2019-03-21T06:44:17.948Z,12.10
2019-03-21T06:45:22.582Z,12.10
2019-03-21T06:46:27.150Z,12.20
2019-03-21T06:47:31.788Z,12.20
2019-03-21T06:48:36.435Z,12.20
2019-03-21T06:49:41.106Z,12.20
2019-03-21T06:50:45.941Z,12.20
2019-03-21T06:51:50.691Z,12.30
2019-03-21T06:52:55.418Z,12.30
2019-03-21T06:54:00.104Z,12.30
2019-03-21T06:55:04.751Z,12.40
2019-03-21T06:56:09.387Z,12.40
2019-03-21T06:57:14.045Z,12.50
2019-03-21T06:58:18.695Z,12.60
2019-03-21T06:59:23.368Z,12.60
2019-03-21T07:00:28.013Z,12.80
2019-03-21T07:01:32.651Z,12.90
2019-03-21T07:02:37.287Z,13.00
2019-03-21T07:03:41.932Z,13.20
2019-03-21T07:04:46.604Z,13.40
2019-03-21T07:05:51.236Z,13.60
2019-03-21T07:07:07.144Z,13.70
2019-03-21T07:08:02.151Z,13.90
2019-03-21T07:09:08.327Z,14.00
2019-03-21T07:10:13.319Z,14.10
2019-03-21T07:11:17.968Z,14.20
2019-03-21T07:12:22.592Z,14.10
2019-03-21T07:13:27.236Z,14.20
2019-03-21T07:14:31.871Z,14.30
2019-03-21T07:15:36.541Z,14.40
2019-03-21T07:16:41.181Z,14.50
2019-03-21T07:17:45.835Z,14.60
2019-03-21T07:18:50.711Z,14.90
2019-03-21T07:19:55.371Z,14.80
2019-03-21T07:21:01.102Z,14.80
2019-03-21T07:22:07.978Z,14.70
2019-03-21T07:23:12.595Z,14.50
2019-03-21T07:24:17.324Z,14.40
2019-03-21T07:25:21.966Z,14.40
2019-03-21T07:26:26.678Z,14.40
2019-03-21T07:27:31.307Z,14.60
2019-03-21T07:28:38.438Z,14.90
2019-03-21T07:29:42.261Z,15.40
2019-03-21T07:30:46.946Z,15.70
2019-03-21T07:31:51.573Z,16.20
2019-03-21T07:32:56.220Z,16.70
2019-03-21T07:34:00.877Z,17.20
2019-03-21T07:35:06.683Z,17.70
2019-03-21T07:36:11.319Z,18.10
2019-03-21T07:37:16.268Z,18.40
2019-03-21T07:38:20.936Z,18.50
2019-03-21T07:39:25.660Z,18.80
2019-03-21T07:40:30.321Z,18.90
2019-03-21T07:41:34.976Z,19.30
2019-03-21T07:42:39.623Z,19.60
2019-03-21T07:43:44.333Z,19.90
2019-03-21T07:44:49.042Z,20.10
2019-03-21T07:45:53.803Z,20.40
2019-03-21T07:46:58.532Z,20.70
2019-03-21T07:48:05.262Z,21.00
2019-03-21T07:49:09.648Z,21.20
2019-03-21T07:50:14.411Z,21.20
2019-03-21T07:51:19.185Z,21.20
2019-03-21T07:52:23.931Z,21.20
2019-03-21T07:53:28.670Z,21.30
2019-03-21T07:54:33.418Z,21.40
2019-03-21T07:55:38.151Z,21.60
2019-03-21T07:56:42.934Z,21.70
2019-03-21T07:57:47.674Z,21.70
2019-03-21T07:58:52.420Z,21.90
2019-03-21T07:59:57.180Z,22.00
2019-03-21T08:01:01.953Z,22.20
2019-03-21T08:02:06.690Z,22.40
2019-03-21T08:03:11.425Z,22.70
2019-03-21T08:04:16.157Z,23.00
2019-03-21T08:05:20.883Z,23.20
2019-03-21T08:06:25.660Z,23.40
2019-03-21T08:07:30.423Z,23.60
2019-03-21T08:08:35.152Z,23.80
2019-03-21T08:09:40.040Z,23.90
2019-03-21T08:10:44.832Z,24.00
2019-03-21T08:11:49.595Z,24.20
2019-03-21T08:12:54.344Z,24.40
2019-03-21T08:13:59.083Z,24.80
2019-03-21T08:15:03.964Z,25.20
2019-03-21T08:16:08.718Z,25.50
2019-03-21T08:17:13.484Z,25.70
2019-03-21T08:18:18.219Z,25.80
2019-03-21T08:19:22.966Z,25.90
2019-03-21T08:20:27.691Z,26.10
2019-03-21T08:21:32.463Z,26.40
2019-03-21T08:22:37.196Z,26.30
2019-03-21T08:23:42.023Z,26.30
2019-03-21T08:24:46.762Z,26.60
2019-03-21T08:25:51.527Z,26.90
2019-03-21T08:26:56.267Z,27.30
2019-03-21T08:28:01.015Z,27.70
2019-03-21T08:29:05.742Z,27.60
2019-03-21T08:30:17.051Z,27.80
2019-03-21T08:31:22.627Z,27.80
2019-03-21T08:32:27.359Z,27.90
2019-03-21T08:33:32.087Z,27.90
2019-03-21T08:34:36.826Z,27.90
2019-03-21T08:35:41.559Z,28.00
2019-03-21T08:36:46.355Z,28.30
2019-03-21T08:37:51.090Z,28.40
2019-03-21T08:38:55.823Z,28.50
2019-03-21T08:40:00.574Z,28.20
2019-03-21T08:41:05.344Z,28.30
2019-03-21T08:42:10.071Z,28.30
2019-03-21T08:43:14.807Z,28.30
2019-03-21T08:44:19.558Z,28.70
2019-03-21T08:45:24.319Z,28.90
2019-03-21T08:46:29.107Z,28.70
2019-03-21T08:47:33.835Z,28.50
2019-03-21T08:48:38.637Z,28.50
2019-03-21T08:49:43.311Z,28.40
2019-03-21T08:50:48.054Z,28.60
2019-03-21T08:51:52.817Z,29.00
2019-03-21T08:52:57.552Z,28.90
2019-03-21T08:54:02.290Z,29.10
2019-03-21T08:55:07.204Z,29.00
2019-03-21T08:56:12.028Z,28.90
2019-03-21T08:57:16.764Z,28.50
2019-03-21T08:58:21.499Z,29.00
2019-03-21T08:59:26.232Z,29.60
2019-03-21T09:00:34.459Z,30.20
2019-03-21T09:01:37.375Z,30.60
2019-03-21T09:02:42.117Z,30.90
2019-03-21T09:03:46.836Z,30.90
2019-03-21T09:04:51.582Z,30.70
2019-03-21T09:05:56.422Z,30.70
2019-03-21T09:07:01.183Z,31.00
2019-03-21T09:08:05.999Z,31.30
2019-03-21T09:09:10.959Z,31.60
2019-03-21T09:10:15.703Z,31.90
2019-03-21T09:11:20.501Z,32.00
2019-03-21T09:12:25.291Z,32.20
2019-03-21T09:13:29.999Z,32.10
2019-03-21T09:14:34.745Z,32.30
2019-03-21T09:15:39.504Z,32.50
2019-03-21T09:16:44.272Z,32.60
2019-03-21T09:17:49.020Z,32.80
2019-03-21T09:18:53.757Z,32.80
2019-03-21T09:19:58.493Z,32.90
2019-03-21T09:21:03.233Z,32.60
2019-03-21T09:22:07.991Z,32.50
2019-03-21T09:23:12.719Z,32.40
2019-03-21T09:24:17.541Z,32.50
2019-03-21T09:25:22.296Z,32.70
2019-03-21T09:26:27.031Z,33.10
2019-03-21T09:27:31.795Z,33.40
2019-03-21T09:28:36.531Z,33.70
2019-03-21T09:29:52.858Z,33.40
2019-03-21T09:30:47.693Z,33.20
2019-03-21T09:31:56.328Z,33.30
2019-03-21T09:33:01.051Z,33.30
2019-03-21T09:34:05.788Z,33.50
2019-03-21T09:35:12.485Z,33.60
2019-03-21T09:36:16.915Z,33.70
2019-03-21T09:37:21.683Z,33.70
2019-03-21T09:38:26.424Z,33.80
2019-03-21T09:39:31.157Z,33.60
2019-03-21T09:40:35.893Z,33.50
2019-03-21T09:41:40.618Z,33.60
2019-03-21T09:42:45.370Z,33.60
2019-03-21T09:43:50.128Z,33.50
2019-03-21T09:44:54.850Z,33.10
2019-03-21T09:45:59.588Z,33.00
2019-03-21T09:47:04.356Z,33.50
2019-03-21T09:48:09.100Z,33.60
2019-03-21T09:49:13.824Z,33.80
2019-03-21T09:50:26.991Z,34.00
2019-03-21T09:51:31.728Z,34.10
2019-03-21T09:52:36.497Z,34.10
2019-03-21T09:53:41.232Z,34.40
2019-03-21T09:54:45.958Z,34.70
2019-03-21T09:55:50.692Z,35.10
2019-03-21T09:56:55.432Z,35.20
2019-03-21T09:58:00.212Z,35.30
2019-03-21T09:59:05.046Z,35.50
2019-03-21T10:00:09.922Z,35.60
2019-03-21T10:01:14.683Z,35.80
2019-03-21T10:02:19.452Z,35.40
2019-03-21T10:03:24.183Z,35.20
2019-03-21T10:04:28.918Z,34.80
2019-03-21T10:05:33.887Z,34.50
2019-03-21T10:06:38.634Z,34.30
2019-03-21T10:07:43.396Z,33.80
2019-03-21T10:08:48.136Z,33.70
2019-03-21T10:09:52.877Z,33.70
2019-03-21T10:10:57.620Z,33.70
2019-03-21T10:12:02.349Z,33.40
2019-03-21T10:13:07.132Z,33.40
2019-03-21T10:14:11.865Z,33.70
2019-03-21T10:15:16.676Z,34.00
2019-03-21T10:16:21.419Z,33.80
2019-03-21T10:17:26.158Z,33.80
2019-03-21T10:18:30.927Z,33.70
2019-03-21T10:19:35.665Z,33.80
2019-03-21T10:20:40.699Z,33.70
2019-03-21T10:21:45.449Z,33.40
2019-03-21T10:22:50.760Z,33.50
2019-03-21T10:23:55.480Z,34.00
2019-03-21T10:25:00.341Z,34.30
2019-03-21T10:26:05.286Z,34.70
2019-03-21T10:27:10.024Z,35.00
2019-03-21T10:28:14.801Z,35.20
2019-03-21T10:29:19.608Z,35.70
2019-03-21T10:30:35.544Z,36.00
2019-03-21T10:31:40.280Z,36.00
2019-03-21T10:32:45.023Z,36.30
2019-03-21T10:33:49.787Z,35.90
2019-03-21T10:34:54.519Z,35.80
2019-03-21T10:35:59.260Z,35.50
2019-03-21T10:37:03.991Z,35.60
2019-03-21T10:38:08.784Z,35.50
2019-03-21T10:39:13.540Z,35.90
2019-03-21T10:40:18.279Z,36.10
2019-03-21T10:41:23.062Z,36.10
2019-03-21T10:42:27.809Z,36.20
2019-03-21T10:43:32.763Z,36.50
2019-03-21T10:44:37.503Z,36.70
2019-03-21T10:45:42.249Z,36.90
2019-03-21T10:46:46.979Z,36.90
2019-03-21T10:47:51.710Z,36.60
2019-03-21T10:48:56.485Z,36.10
2019-03-21T10:50:01.222Z,35.80
2019-03-21T10:51:05.983Z,35.90
2019-03-21T10:52:10.689Z,36.10
2019-03-21T10:53:15.438Z,35.30
2019-03-21T10:54:20.223Z,35.50
2019-03-21T10:55:24.975Z,35.30
2019-03-21T10:56:29.707Z,34.80
2019-03-21T10:57:34.456Z,34.60
2019-03-21T10:58:39.249Z,34.10
2019-03-21T10:59:43.999Z,33.60
2019-03-21T11:00:48.728Z,33.30
2019-03-21T11:01:53.481Z,32.90
2019-03-21T11:02:58.213Z,32.60
2019-03-21T11:04:02.984Z,33.10
2019-03-21T11:05:07.731Z,33.40
2019-03-21T11:06:12.459Z,33.80
2019-03-21T11:07:15.220Z,34.00
2019-03-21T11:08:19.957Z,33.80
2019-03-21T11:09:24.724Z,33.80
2019-03-21T11:10:29.473Z,33.90
2019-03-21T11:11:34.235Z,34.20
2019-03-21T11:12:38.990Z,34.50
2019-03-21T11:13:43.734Z,35.00
2019-03-21T11:14:48.495Z,34.40
2019-03-21T11:15:53.235Z,34.20
2019-03-21T11:16:58.014Z,34.30
2019-03-21T11:18:02.742Z,34.60
2019-03-21T11:19:07.511Z,34.90
2019-03-21T11:20:15.840Z,35.10
2019-03-21T11:21:20.580Z,34.40
2019-03-21T11:22:25.325Z,33.80
2019-03-21T11:23:30.151Z,33.70
2019-03-21T11:24:34.917Z,33.80
2019-03-21T11:25:39.708Z,33.80
2019-03-21T11:26:44.443Z,33.60
2019-03-21T11:27:49.184Z,33.20
2019-03-21T11:28:53.935Z,33.10
2019-03-21T11:29:58.708Z,33.50
2019-03-21T11:31:03.469Z,33.60
2019-03-21T11:32:08.204Z,33.30
2019-03-21T11:33:12.948Z,33.20
2019-03-21T11:34:17.688Z,33.30
2019-03-21T11:35:22.602Z,33.50
2019-03-21T11:36:37.743Z,33.80
2019-03-21T11:37:33.780Z,34.00
2019-03-21T11:38:38.555Z,34.40
2019-03-21T11:39:43.331Z,34.80
2019-03-21T11:40:48.561Z,35.40
2019-03-21T11:41:53.450Z,35.60
2019-03-21T11:42:58.631Z,35.60
2019-03-21T11:44:03.380Z,35.60
2019-03-21T11:45:08.127Z,35.30
2019-03-21T11:46:12.871Z,34.60
2019-03-21T11:47:17.627Z,34.60
2019-03-21T11:48:22.379Z,34.80
2019-03-21T11:49:27.112Z,34.50
2019-03-21T11:50:31.886Z,34.60
2019-03-21T11:51:36.609Z,34.90
2019-03-21T11:52:41.415Z,35.30
2019-03-21T11:53:46.212Z,35.70
2019-03-21T11:54:50.949Z,36.20
2019-03-21T11:55:55.707Z,36.40
2019-03-21T11:57:00.464Z,36.20
2019-03-21T11:58:05.378Z,35.80
2019-03-21T11:59:10.120Z,35.20
2019-03-21T12:00:15.452Z,34.60
2019-03-21T12:01:20.183Z,34.40
2019-03-21T12:02:27.364Z,34.60
2019-03-21T12:03:31.307Z,34.80
2019-03-21T12:04:36.056Z,34.80
2019-03-21T12:05:40.823Z,34.90
2019-03-21T12:06:45.579Z,35.00
2019-03-21T12:07:50.319Z,35.30
2019-03-21T12:08:55.067Z,35.60
2019-03-21T12:09:59.823Z,35.50
2019-03-21T12:11:04.630Z,35.40
2019-03-21T12:12:09.356Z,35.30
2019-03-21T12:13:14.092Z,35.00
2019-03-21T12:14:18.827Z,35.10
2019-03-21T12:15:23.610Z,34.80
2019-03-21T12:16:28.352Z,34.70
2019-03-21T12:17:33.146Z,34.60
2019-03-21T12:18:37.851Z,34.80
2019-03-21T12:19:42.601Z,34.90
2019-03-21T12:20:47.363Z,35.20
2019-03-21T12:21:52.108Z,35.00
2019-03-21T12:22:56.857Z,35.00
2019-03-21T12:24:01.598Z,35.30
2019-03-21T12:25:07.039Z,35.30
2019-03-21T12:26:11.802Z,35.20
2019-03-21T12:27:16.621Z,35.20
2019-03-21T12:28:21.532Z,35.10
2019-03-21T12:29:26.280Z,35.00
2019-03-21T12:30:35.890Z,34.90
2019-03-21T12:31:40.655Z,35.00
2019-03-21T12:32:45.397Z,35.10
2019-03-21T12:33:50.141Z,35.20
2019-03-21T12:34:54.880Z,35.30
2019-03-21T12:35:59.659Z,35.40
2019-03-21T12:37:04.473Z,35.20
2019-03-21T12:38:09.199Z,34.80
2019-03-21T12:39:13.925Z,34.60
2019-03-21T12:40:18.682Z,34.30
2019-03-21T12:41:23.497Z,34.10
2019-03-21T12:42:28.389Z,33.80
2019-03-21T12:43:33.135Z,33.50
2019-03-21T12:44:39.144Z,33.20
2019-03-21T12:45:43.884Z,33.20
2019-03-21T12:46:48.650Z,33.30
2019-03-21T12:47:53.395Z,33.50
2019-03-21T12:48:58.143Z,33.30
2019-03-21T12:50:02.907Z,33.10
2019-03-21T12:51:07.639Z,32.90
2019-03-21T12:52:12.487Z,32.80
2019-03-21T12:53:17.349Z,32.80
2019-03-21T12:54:22.074Z,32.50
2019-03-21T12:55:26.869Z,32.50
2019-03-21T12:56:31.650Z,32.50
2019-03-21T12:57:36.394Z,32.50
2019-03-21T12:58:41.132Z,32.30
2019-03-21T12:59:45.893Z,32.30
2019-03-21T13:00:50.635Z,32.20
2019-03-21T13:01:55.396Z,32.20
2019-03-21T13:03:00.154Z,32.10
2019-03-21T13:04:04.907Z,32.20
2019-03-21T13:05:11.213Z,32.30
2019-03-21T13:06:15.951Z,32.40
2019-03-21T13:07:22.337Z,32.50
2019-03-21T13:08:33.700Z,32.40
2019-03-21T13:09:33.605Z,32.30
2019-03-21T13:10:38.396Z,31.70
2019-03-21T13:11:43.163Z,31.30
2019-03-21T13:12:47.918Z,30.80
2019-03-21T13:13:52.672Z,30.70
2019-03-21T13:14:57.407Z,30.60
2019-03-21T13:16:02.189Z,30.50
2019-03-21T13:17:06.961Z,30.20
2019-03-21T13:18:11.729Z,29.80
2019-03-21T13:19:16.467Z,29.50
2019-03-21T13:20:21.213Z,29.10
2019-03-21T13:21:26.001Z,29.00
2019-03-21T13:22:30.881Z,28.90
2019-03-21T13:23:35.663Z,28.70
2019-03-21T13:24:40.408Z,28.50
2019-03-21T13:25:45.144Z,28.40
2019-03-21T13:26:49.880Z,28.40
2019-03-21T13:27:54.652Z,28.40
2019-03-21T13:28:59.393Z,28.30
2019-03-21T13:30:04.186Z,28.20
2019-03-21T13:31:09.039Z,28.20
2019-03-21T13:32:13.826Z,28.20
2019-03-21T13:33:19.655Z,28.20
2019-03-21T13:34:24.541Z,28.20
2019-03-21T13:35:32.888Z,28.30
2019-03-21T13:36:35.719Z,28.30
2019-03-21T13:37:40.483Z,28.30
2019-03-21T13:38:45.215Z,28.20
2019-03-21T13:39:49.960Z,28.10
2019-03-21T13:40:54.700Z,28.00
2019-03-21T13:41:59.651Z,27.80
2019-03-21T13:43:04.767Z,27.70
2019-03-21T13:44:09.507Z,27.70
2019-03-21T13:45:14.363Z,27.60
2019-03-21T13:46:19.099Z,27.40
2019-03-21T13:47:24.194Z,27.20
2019-03-21T13:48:28.936Z,27.20
2019-03-21T13:49:33.774Z,27.20
2019-03-21T13:50:38.653Z,27.10
2019-03-21T13:51:43.346Z,27.00
2019-03-21T13:52:48.145Z,26.90
2019-03-21T13:53:52.885Z,26.80
2019-03-21T13:54:57.688Z,26.60
2019-03-21T13:56:02.373Z,26.40
2019-03-21T13:57:07.091Z,26.10
2019-03-21T13:58:11.787Z,26.10
2019-03-21T13:59:16.513Z,26.20
2019-03-21T14:00:22.197Z,26.20
2019-03-21T14:01:26.927Z,26.10